This is the latest recevied weather packets stored in our database for station/object N8XHB. If no packets are shown the sender has not sent any weather packets the latest 10 day(s).
| Time | Temp. | Humidity | Pressure | Rain* | Wind** | Luminosity | Snow |
|---|---|---|---|---|---|---|---|
| 1777593531 | 7.78° C | 48% | 1014.7 hPa | 0 mm | - | 7 W/m² | - |
| 1777593224 | 7.78° C | 49% | 1014.5 hPa | 0 mm | - | 10 W/m² | - |
| 1777592924 | 7.78° C | 48% | 1014.7 hPa | 0 mm | - | 9 W/m² | - |
| 1777592620 | 7.78° C | 48% | 1014.6 hPa | 0 mm | - | 12 W/m² | - |
| 1777592316 | 7.78° C | 49% | 1014.5 hPa | 0 mm | - | 12 W/m² | - |
| 1777592012 | 8.33° C | 47% | 1014.7 hPa | 0 mm | - | 11 W/m² | - |
| 1777591709 | 8.33° C | 46% | 1014.7 hPa | 0 mm | - | 16 W/m² | - |
| 1777591404 | 8.33° C | 46% | 1014.8 hPa | 0 mm | - | 23 W/m² | - |
| 1777591101 | 8.33° C | 45% | 1014.6 hPa | 0 mm | - | 24 W/m² | - |
| 1777590796 | 8.33° C | 44% | 1015.1 hPa | 0 mm | - | 34 W/m² | - |
| 1777590492 | 8.33° C | 45% | 1014.7 hPa | 0 mm | - | 36 W/m² | - |
| 1777590189 | 8.89° C | 45% | 1014.9 hPa | 0 mm | - | 36 W/m² | - |
| 1777589886 | 8.89° C | 45% | 1014.9 hPa | 0 mm | - | 44 W/m² | - |
| 1777589581 | 8.89° C | 44% | 1014.9 hPa | 0 mm | - | 39 W/m² | - |
| 1777589279 | 8.89° C | 44% | 1014.8 hPa | 0 mm | - | 39 W/m² | - |
| 1777588977 | 8.89° C | 44% | 1015 hPa | 0 mm | - | 54 W/m² | - |
| 1777588672 | 8.89° C | 43% | 1014.8 hPa | 0 mm | - | 49 W/m² | - |
| 1777588368 | 9.44° C | 43% | 1014.9 hPa | 0 mm | - | 66 W/m² | - |
| 1777588064 | 9.44° C | 42% | 1014.9 hPa | 0 mm | - | 83 W/m² | - |
| 1777587760 | 9.44° C | 43% | 1015 hPa | 0 mm | - | 100 W/m² | - |
| 1777587459 | 9.44° C | 41% | 1015 hPa | 0 mm | - | 101 W/m² | - |
| 1777587156 | 10° C | 41% | 1014.9 hPa | 0 mm | - | 89 W/m² | - |
| 1777586851 | 9.44° C | 43% | 1014.9 hPa | 0 mm | - | 152 W/m² | - |
| 1777586547 | 10° C | 40% | 1015 hPa | 0 mm | - | 84 W/m² | - |
| 1777586243 | 10° C | 40% | 1014.8 hPa | 0 mm | - | 122 W/m² | - |
* Rain latest hour (hover to see other rain measurements)
** Current wind speed in m/s (hover to see current wind gust speed)